Time;durP1;ratioP1;P1;durP2;ratioP2;P2;SDS_P1;SDS_P2;PMS_P1;PMS_P2;Temp;Humidity;BMP_temperature;BMP_pressure;BME280_temperature;BME280_humidity;BME280_pressure;Samples;Min_cycle;Max_cycle;Signal;HPM_P1;HPM_P2
2023/04/29 00:01:32;;;;;;;4.82;4.43;;;;;;;;;;5037753;28;20225;-60
2023/04/29 00:04:00;;;;;;;4.63;4.22;;;;;;;;;;5037528;28;20217;-60
2023/04/29 00:06:29;;;;;;;4.60;4.25;;;;;;;;;;5037729;28;20205;-60
2023/04/29 00:08:57;;;;;;;4.82;4.43;;;;;;;;;;5037441;28;20213;-60
2023/04/29 00:11:25;;;;;;;4.57;4.20;;;;;;;;;;5037918;28;20300;-60
2023/04/29 00:13:53;;;;;;;4.38;4.07;;;;;;;;;;5037743;28;20205;-60
2023/04/29 00:16:21;;;;;;;4.22;3.88;;;;;;;;;;5037491;28;20614;-60
2023/04/29 00:18:50;;;;;;;4.20;3.90;;;;;;;;;;5037394;28;20241;-60
2023/04/29 00:21:18;;;;;;;4.72;4.32;;;;;;;;;;5037207;28;20206;-60
2023/04/29 00:23:46;;;;;;;4.50;4.10;;;;;;;;;;5037221;28;20205;-60
2023/04/29 00:26:14;;;;;;;4.32;4.03;;;;;;;;;;5037550;28;20664;-60
2023/04/29 00:28:41;;;;;;;4.38;4.07;;;;;;;;;;5036564;28;20612;-60
2023/04/29 00:31:09;;;;;;;4.18;3.88;;;;;;;;;;5037237;28;20689;-60
2023/04/29 00:33:39;;;;;;;3.83;3.53;;;;;;;;;;5036284;28;20280;-60
2023/04/29 00:36:09;;;;;;;4.65;4.25;;;;;;;;;;5036970;28;20238;-60
2023/04/29 00:38:36;;;;;;;4.47;4.07;;;;;;;;;;5037048;28;20308;-60
2023/04/29 00:41:04;;;;;;;4.38;4.00;;;;;;;;;;5037228;28;20232;-60
2023/04/29 00:43:32;;;;;;;4.55;4.18;;;;;;;;;;5036965;28;20289;-60
2023/04/29 00:46:00;;;;;;;3.97;3.67;;;;;;;;;;5037016;28;20205;-60
2023/04/29 00:48:28;;;;;;;4.40;4.10;;;;;;;;;;5036758;28;20205;-60
2023/04/29 00:50:56;;;;;;;4.25;3.85;;;;;;;;;;5036921;28;20241;-60
2023/04/29 00:53:25;;;;;;;3.97;3.67;;;;;;;;;;5037424;28;20236;-60
2023/04/29 00:55:53;;;;;;;4.05;3.75;;;;;;;;;;5036881;28;20240;-60
2023/04/29 00:58:21;;;;;;;3.72;3.42;;;;;;;;;;5036576;28;20202;-60
2023/04/29 01:00:49;;;;;;;3.72;3.42;;;;;;;;;;5037019;28;20238;-60
2023/04/29 01:03:17;;;;;;;3.80;3.50;;;;;;;;;;5037084;28;20206;-60
2023/04/29 01:05:47;;;;;;;3.92;3.63;;;;;;;;;;5036835;28;20219;-60
2023/04/29 01:08:30;;;;;;;4.20;3.90;;;;;;;;;;5036890;28;20677;-60
2023/04/29 01:11:04;;;;;;;4.10;3.80;;;;;;;;;;5036595;28;20205;-60
2023/04/29 01:13:33;;;;;;;3.90;3.60;;;;;;;;;;5037083;28;20237;-60
2023/04/29 01:16:02;;;;;;;4.07;3.67;;;;;;;;;;5037023;28;20240;-60
2023/04/29 01:18:33;;;;;;;3.65;3.35;;;;;;;;;;5037155;28;20213;-60
2023/04/29 01:21:01;;;;;;;3.60;3.30;;;;;;;;;;5036773;28;20296;-60
2023/04/29 01:23:31;;;;;;;3.80;3.50;;;;;;;;;;5036663;28;20205;-60
2023/04/29 01:25:59;;;;;;;3.72;3.42;;;;;;;;;;5036956;28;20267;-60
2023/04/29 01:28:37;;;;;;;3.75;3.45;;;;;;;;;;5036984;28;20206;-60
2023/04/29 01:31:07;;;;;;;3.85;3.55;;;;;;;;;;5036667;28;20198;-60
2023/04/29 01:33:41;;;;;;;4.05;3.75;;;;;;;;;;5036926;28;20475;-60
2023/04/29 01:36:15;;;;;;;3.53;3.30;;;;;;;;;;5036450;28;20290;-60
2023/04/29 01:38:48;;;;;;;3.58;3.28;;;;;;;;;;5036922;28;20206;-60
2023/04/29 01:41:17;;;;;;;3.67;3.38;;;;;;;;;;5036888;28;20260;-60
2023/04/29 01:43:48;;;;;;;3.40;3.20;;;;;;;;;;5036595;28;20206;-60
2023/04/29 01:46:18;;;;;;;3.30;3.10;;;;;;;;;;5039604;28;20224;-60
2023/04/29 01:48:46;;;;;;;3.60;3.30;;;;;;;;;;5040387;28;20309;-60
2023/04/29 01:51:14;;;;;;;3.60;3.30;;;;;;;;;;5040329;28;20546;-60
2023/04/29 01:53:42;;;;;;;3.17;2.95;;;;;;;;;;5040182;28;20205;-60
2023/04/29 01:56:11;;;;;;;3.38;3.17;;;;;;;;;;5040114;28;20269;-60
2023/04/29 01:58:39;;;;;;;3.58;3.28;;;;;;;;;;5039862;28;20565;-60
2023/04/29 02:01:09;;;;;;;3.33;3.13;;;;;;;;;;5039795;28;20230;-60
2023/04/29 02:03:37;;;;;;;3.45;3.17;;;;;;;;;;5040371;28;20205;-60
2023/04/29 02:06:05;;;;;;;3.30;3.10;;;;;;;;;;5039940;28;20624;-60
2023/04/29 02:08:33;;;;;;;3.28;2.97;;;;;;;;;;5039978;28;20216;-60
2023/04/29 02:11:01;;;;;;;2.95;2.75;;;;;;;;;;5040000;28;20213;-60
2023/04/29 02:13:30;;;;;;;3.28;3.05;;;;;;;;;;5040096;28;20198;-60
2023/04/29 02:15:58;;;;;;;3.22;3.03;;;;;;;;;;5039890;28;20205;-60
2023/04/29 02:18:29;;;;;;;3.00;2.80;;;;;;;;;;5039641;28;20205;-60
2023/04/29 02:21:02;;;;;;;3.00;2.80;;;;;;;;;;5040015;28;20206;-60
2023/04/29 02:23:30;;;;;;;3.22;3.00;;;;;;;;;;5039882;28;20309;-60
2023/04/29 02:25:58;;;;;;;3.30;3.00;;;;;;;;;;5039872;28;20221;-60
2023/04/29 02:28:26;;;;;;;3.10;2.90;;;;;;;;;;5039631;28;20205;-60
2023/04/29 02:33:41;;;;;;;2.78;2.58;;;;;;;;;;5906310;22;20239;-61
2023/04/29 02:36:08;;;;;;;3.00;2.80;;;;;;;;;;5059480;28;20493;-60
2023/04/29 02:38:35;;;;;;;2.70;2.50;;;;;;;;;;5059892;28;20204;-60
2023/04/29 02:41:03;;;;;;;3.10;2.90;;;;;;;;;;5059759;28;20288;-60
2023/04/29 02:43:31;;;;;;;3.00;2.80;;;;;;;;;;5059526;28;20308;-60
2023/04/29 02:45:59;;;;;;;2.85;2.65;;;;;;;;;;5059505;28;20296;-60
2023/04/29 02:48:26;;;;;;;2.80;2.60;;;;;;;;;;5059269;28;20216;-60
2023/04/29 02:50:55;;;;;;;2.72;2.53;;;;;;;;;;5059339;28;20205;-60
2023/04/29 02:53:22;;;;;;;3.03;2.83;;;;;;;;;;5059283;28;20304;-60
2023/04/29 02:55:50;;;;;;;2.90;2.70;;;;;;;;;;5058550;28;20288;-60
2023/04/29 02:58:17;;;;;;;2.85;2.65;;;;;;;;;;5058837;28;20521;-60
2023/04/29 03:00:45;;;;;;;2.63;2.42;;;;;;;;;;5059298;28;20204;-60
2023/04/29 03:03:12;;;;;;;2.88;2.67;;;;;;;;;;5059220;28;20303;-60
2023/04/29 03:05:40;;;;;;;2.70;2.50;;;;;;;;;;5059199;28;20494;-60
2023/04/29 03:08:09;;;;;;;2.70;2.50;;;;;;;;;;5059171;28;20212;-60
2023/04/29 03:10:38;;;;;;;2.75;2.55;;;;;;;;;;5058596;28;20204;-60
2023/04/29 03:13:05;;;;;;;2.80;2.60;;;;;;;;;;5058768;28;20528;-60
2023/04/29 03:15:32;;;;;;;2.75;2.55;;;;;;;;;;5059235;28;20615;-60
2023/04/29 03:18:00;;;;;;;2.70;2.50;;;;;;;;;;5059185;28;20526;-60
2023/04/29 03:20:28;;;;;;;2.70;2.50;;;;;;;;;;5058626;28;20308;-60
2023/04/29 03:22:56;;;;;;;2.63;2.42;;;;;;;;;;5058692;28;20490;-60
2023/04/29 03:25:25;;;;;;;2.22;2.13;;;;;;;;;;5058457;28;20295;-61
2023/04/29 03:27:52;;;;;;;2.38;2.20;;;;;;;;;;5058350;28;20570;-60
2023/04/29 03:30:20;;;;;;;2.50;2.30;;;;;;;;;;5058529;28;20288;-60
2023/04/29 03:32:47;;;;;;;2.60;2.40;;;;;;;;;;5058460;28;20205;-60
2023/04/29 03:35:14;;;;;;;2.58;2.38;;;;;;;;;;5058477;28;20255;-60
2023/04/29 03:37:43;;;;;;;2.63;2.45;;;;;;;;;;5058382;28;20235;-60
2023/04/29 03:40:11;;;;;;;2.40;2.20;;;;;;;;;;5058420;28;20205;-60
2023/04/29 03:42:40;;;;;;;2.40;2.20;;;;;;;;;;5058479;28;20300;-60
2023/04/29 03:45:08;;;;;;;2.45;2.30;;;;;;;;;;5058471;28;20205;-61
2023/04/29 03:47:35;;;;;;;2.42;2.22;;;;;;;;;;5057957;28;20636;-60
2023/04/29 03:50:03;;;;;;;2.30;2.17;;;;;;;;;;5058314;28;20292;-60
2023/04/29 03:52:30;;;;;;;2.40;2.20;;;;;;;;;;5058184;28;20209;-60
2023/04/29 03:54:58;;;;;;;2.42;2.22;;;;;;;;;;5058389;28;20301;-60
2023/04/29 03:57:25;;;;;;;2.17;2.05;;;;;;;;;;5058114;28;20311;-60
2023/04/29 03:59:54;;;;;;;2.45;2.25;;;;;;;;;;5057873;28;20247;-60
2023/04/29 04:02:21;;;;;;;2.10;2.00;;;;;;;;;;5057868;28;20205;-60
2023/04/29 04:04:49;;;;;;;2.10;2.00;;;;;;;;;;5057558;28;20244;-60
2023/04/29 04:07:17;;;;;;;2.20;2.10;;;;;;;;;;5057509;28;20244;-60
2023/04/29 04:09:44;;;;;;;2.00;1.90;;;;;;;;;;5057822;28;20251;-60
2023/04/29 04:12:12;;;;;;;2.58;2.38;;;;;;;;;;5057793;28;20270;-60
2023/04/29 04:14:39;;;;;;;2.15;2.05;;;;;;;;;;5057412;28;20284;-60
2023/04/29 04:17:08;;;;;;;2.00;1.90;;;;;;;;;;5057675;28;20327;-60
2023/04/29 04:19:36;;;;;;;2.05;1.95;;;;;;;;;;5057392;28;20484;-60
2023/04/29 04:22:04;;;;;;;2.03;1.92;;;;;;;;;;5057535;28;20240;-60
2023/04/29 04:24:31;;;;;;;2.15;2.05;;;;;;;;;;5056591;28;20493;-60
2023/04/29 04:26:58;;;;;;;1.70;1.60;;;;;;;;;;5057658;28;20291;-61
2023/04/29 04:29:26;;;;;;;1.85;1.75;;;;;;;;;;5057053;28;20291;-60
2023/04/29 04:31:54;;;;;;;2.00;1.90;;;;;;;;;;5057465;28;20240;-60
2023/04/29 04:34:23;;;;;;;1.83;1.73;;;;;;;;;;5056721;28;20229;-60
2023/04/29 04:36:51;;;;;;;1.85;1.75;;;;;;;;;;5056692;28;20216;-60
2023/04/29 04:39:18;;;;;;;2.00;1.90;;;;;;;;;;5057088;28;20228;-60
2023/04/29 04:41:46;;;;;;;1.90;1.80;;;;;;;;;;5057021;28;20223;-60
2023/04/29 04:44:14;;;;;;;1.75;1.65;;;;;;;;;;5056965;28;20237;-60
2023/04/29 04:46:42;;;;;;;2.08;1.92;;;;;;;;;;5057463;28;20481;-60
2023/04/29 04:49:09;;;;;;;1.90;1.80;;;;;;;;;;5056966;28;20562;-60
2023/04/29 04:51:38;;;;;;;1.90;1.80;;;;;;;;;;5056710;28;20299;-60
2023/04/29 04:54:05;;;;;;;1.75;1.65;;;;;;;;;;5057575;28;20252;-60
2023/04/29 04:56:33;;;;;;;1.90;1.80;;;;;;;;;;5056713;28;20640;-61
2023/04/29 04:59:01;;;;;;;1.83;1.73;;;;;;;;;;5056415;28;20235;-60
2023/04/29 05:01:28;;;;;;;2.10;1.70;;;;;;;;;;5056528;28;20684;-60
2023/04/29 05:03:56;;;;;;;1.80;1.70;;;;;;;;;;5056501;28;20471;-60
2023/04/29 05:06:23;;;;;;;1.80;1.70;;;;;;;;;;5056908;28;20204;-60
2023/04/29 05:08:52;;;;;;;1.67;1.58;;;;;;;;;;5056622;28;20303;-60
2023/04/29 05:11:20;;;;;;;1.80;1.70;;;;;;;;;;5056904;28;20299;-60
2023/04/29 05:13:47;;;;;;;1.80;1.70;;;;;;;;;;5056418;28;20296;-60
2023/04/29 05:16:16;;;;;;;1.67;1.58;;;;;;;;;;5056907;28;20307;-60
2023/04/29 05:18:45;;;;;;;1.60;1.50;;;;;;;;;;5056486;28;20225;-60
2023/04/29 05:21:12;;;;;;;1.83;1.73;;;;;;;;;;5060272;28;20201;-60
2023/04/29 05:23:40;;;;;;;1.67;1.58;;;;;;;;;;5060210;28;20699;-60
2023/04/29 05:26:09;;;;;;;1.52;1.42;;;;;;;;;;5060423;28;20212;-60
2023/04/29 05:28:37;;;;;;;1.50;1.40;;;;;;;;;;5060876;28;20304;-60
2023/04/29 05:31:04;;;;;;;1.58;1.48;;;;;;;;;;5060560;28;20205;-60
2023/04/29 05:33:32;;;;;;;1.52;1.42;;;;;;;;;;5060317;28;20306;-60
2023/04/29 05:35:59;;;;;;;1.67;1.40;;;;;;;;;;5059984;28;20263;-60
2023/04/29 05:38:28;;;;;;;1.58;1.48;;;;;;;;;;5060305;28;20233;-61
2023/04/29 05:40:56;;;;;;;1.40;1.30;;;;;;;;;;5060497;28;20304;-60
2023/04/29 05:43:25;;;;;;;1.52;1.42;;;;;;;;;;5060124;28;20316;-60
2023/04/29 05:45:52;;;;;;;1.48;1.38;;;;;;;;;;5059837;28;20741;-60
2023/04/29 05:48:20;;;;;;;1.60;1.50;;;;;;;;;;5060266;28;20236;-60
2023/04/29 05:50:47;;;;;;;1.65;1.55;;;;;;;;;;5060088;28;20205;-60
2023/04/29 05:53:15;;;;;;;1.52;1.42;;;;;;;;;;5059308;28;20216;-60
2023/04/29 05:55:43;;;;;;;1.45;1.35;;;;;;;;;;5059840;28;20496;-60
2023/04/29 05:58:11;;;;;;;1.52;1.42;;;;;;;;;;5059308;28;20259;-61
2023/04/29 06:00:40;;;;;;;1.30;1.20;;;;;;;;;;5059485;28;20640;-60
2023/04/29 06:03:07;;;;;;;1.40;1.30;;;;;;;;;;5059360;28;20262;-60
2023/04/29 06:05:35;;;;;;;1.50;1.40;;;;;;;;;;5059598;28;20274;-60
2023/04/29 06:08:03;;;;;;;1.50;1.40;;;;;;;;;;5059765;28;20229;-60
2023/04/29 06:10:30;;;;;;;1.52;1.42;;;;;;;;;;5059104;28;20214;-60
2023/04/29 06:12:58;;;;;;;1.70;1.60;;;;;;;;;;5059925;28;20216;-60
2023/04/29 06:15:25;;;;;;;1.50;1.40;;;;;;;;;;5059074;28;20266;-61
2023/04/29 06:17:54;;;;;;;1.60;1.50;;;;;;;;;;5059771;28;20569;-60
2023/04/29 06:20:22;;;;;;;1.50;1.40;;;;;;;;;;5059097;28;20208;-60
2023/04/29 06:22:49;;;;;;;1.23;1.13;;;;;;;;;;5059381;28;20525;-60
2023/04/29 06:25:17;;;;;;;1.55;1.45;;;;;;;;;;5058965;28;20237;-59
2023/04/29 06:27:44;;;;;;;1.25;1.25;;;;;;;;;;5058562;28;20236;-60
2023/04/29 06:30:40;;;;;;;1.40;1.30;;;;;;;;;;5058438;28;20204;-60
2023/04/29 06:33:09;;;;;;;1.50;1.40;;;;;;;;;;5058815;28;20204;-60
2023/04/29 06:35:40;;;;;;;1.38;1.27;;;;;;;;;;5058964;28;20201;-60
2023/04/29 06:38:08;;;;;;;1.52;1.42;;;;;;;;;;5059227;28;20259;-60
2023/04/29 06:40:35;;;;;;;1.60;1.50;;;;;;;;;;5058672;28;20228;-60
2023/04/29 06:43:03;;;;;;;1.50;1.40;;;;;;;;;;5059371;28;20566;-60
2023/04/29 06:45:30;;;;;;;1.05;1.05;;;;;;;;;;5059317;28;20209;-60
2023/04/29 06:47:58;;;;;;;1.60;1.50;;;;;;;;;;5058851;28;20527;-60
2023/04/29 06:50:27;;;;;;;1.25;1.20;;;;;;;;;;5058322;28;20295;-60
2023/04/29 06:52:55;;;;;;;1.40;1.30;;;;;;;;;;5059110;28;20205;-60
2023/04/29 06:55:22;;;;;;;1.60;1.50;;;;;;;;;;5058292;28;20212;-60
2023/04/29 06:57:50;;;;;;;1.70;1.48;;;;;;;;;;5058213;28;20279;-60
2023/04/29 07:00:19;;;;;;;1.83;1.30;;;;;;;;;;5058026;28;20215;-60
2023/04/29 07:02:47;;;;;;;1.35;1.25;;;;;;;;;;5057927;28;20201;-60
2023/04/29 07:05:15;;;;;;;1.63;1.52;;;;;;;;;;5058303;28;20639;-60
2023/04/29 07:07:44;;;;;;;1.30;1.20;;;;;;;;;;5058743;28;20237;-60
2023/04/29 07:10:11;;;;;;;2.25;1.58;;;;;;;;;;5058079;28;20558;-60
2023/04/29 07:12:39;;;;;;;1.33;1.23;;;;;;;;;;5058450;28;20586;-60
2023/04/29 07:15:07;;;;;;;2.22;1.40;;;;;;;;;;5058200;28;20240;-60
2023/04/29 07:17:34;;;;;;;1.50;1.38;;;;;;;;;;5057163;28;20259;-60
2023/04/29 07:20:02;;;;;;;1.83;1.30;;;;;;;;;;5058410;28;20205;-60
2023/04/29 07:22:30;;;;;;;1.50;1.40;;;;;;;;;;5057528;28;20293;-60
2023/04/29 07:24:59;;;;;;;2.47;1.40;;;;;;;;;;5057550;28;20205;-60
2023/04/29 07:27:28;;;;;;;1.65;1.55;;;;;;;;;;5057561;28;20270;-60
2023/04/29 07:29:56;;;;;;;1.48;1.38;;;;;;;;;;5057275;28;20231;-61
2023/04/29 07:32:24;;;;;;;1.48;1.38;;;;;;;;;;5057484;28;20205;-60
2023/04/29 07:34:51;;;;;;;2.42;1.35;;;;;;;;;;5056549;28;20241;-60
2023/04/29 07:37:19;;;;;;;1.30;1.20;;;;;;;;;;5056824;28;20201;-60
2023/04/29 07:39:46;;;;;;;1.35;1.20;;;;;;;;;;5057210;28;20333;-60
2023/04/29 07:42:15;;;;;;;1.20;1.10;;;;;;;;;;5056263;28;20237;-60
2023/04/29 07:44:44;;;;;;;1.35;1.25;;;;;;;;;;5057436;28;20244;-60
2023/04/29 07:47:11;;;;;;;1.40;1.23;;;;;;;;;;5057417;28;20216;-60
2023/04/29 07:49:40;;;;;;;1.23;1.20;;;;;;;;;;5056707;28;20201;-60
2023/04/29 07:52:08;;;;;;;1.50;1.15;;;;;;;;;;5057147;28;20215;-60
2023/04/29 07:54:36;;;;;;;1.73;1.50;;;;;;;;;;5056959;28;20212;-60
2023/04/29 07:57:04;;;;;;;2.47;1.45;;;;;;;;;;5057345;28;20240;-60
2023/04/29 07:59:33;;;;;;;1.20;1.10;;;;;;;;;;5056458;28;20308;-60
2023/04/29 08:02:00;;;;;;;1.40;1.30;;;;;;;;;;5057261;28;20267;-60
2023/04/29 08:04:28;;;;;;;1.35;1.25;;;;;;;;;;5056585;28;20263;-60
2023/04/29 08:06:55;;;;;;;1.77;1.20;;;;;;;;;;5056957;28;20244;-60
2023/04/29 08:09:23;;;;;;;1.20;1.10;;;;;;;;;;5056566;28;20243;-60
2023/04/29 08:11:51;;;;;;;1.30;1.20;;;;;;;;;;5056434;28;20480;-60
2023/04/29 08:14:18;;;;;;;0.98;0.90;;;;;;;;;;5055777;28;20659;-60
2023/04/29 08:16:47;;;;;;;1.30;1.20;;;;;;;;;;5056158;28;20216;-60
2023/04/29 08:19:15;;;;;;;1.20;1.10;;;;;;;;;;5056023;28;20319;-60
2023/04/29 08:21:42;;;;;;;1.30;1.20;;;;;;;;;;5055971;28;20205;-60
2023/04/29 08:24:10;;;;;;;1.20;1.10;;;;;;;;;;5055825;28;20271;-60
2023/04/29 08:26:38;;;;;;;1.00;1.00;;;;;;;;;;5055399;28;20208;-60
2023/04/29 08:29:06;;;;;;;1.20;1.10;;;;;;;;;;5055640;28;20312;-60
2023/04/29 08:31:33;;;;;;;1.48;1.23;;;;;;;;;;5055249;28;20240;-60
2023/04/29 08:34:02;;;;;;;1.15;1.10;;;;;;;;;;5054812;28;20550;-60
2023/04/29 08:36:30;;;;;;;1.42;1.25;;;;;;;;;;5055021;28;20240;-60
2023/04/29 08:38:57;;;;;;;1.23;1.20;;;;;;;;;;5054211;28;20290;-60
2023/04/29 08:41:25;;;;;;;1.35;1.25;;;;;;;;;;5054788;28;20593;-60
2023/04/29 08:43:53;;;;;;;1.15;1.05;;;;;;;;;;5054879;28;20279;-60
2023/04/29 08:46:21;;;;;;;1.17;1.00;;;;;;;;;;5055626;28;20262;-60
2023/04/29 08:48:49;;;;;;;1.08;0.98;;;;;;;;;;5055712;28;20300;-60
2023/04/29 08:51:18;;;;;;;1.13;1.02;;;;;;;;;;5055099;28;20200;-60
2023/04/29 08:53:46;;;;;;;1.10;1.00;;;;;;;;;;5055311;28;20240;-60
2023/04/29 08:56:16;;;;;;;1.00;1.00;;;;;;;;;;5055421;28;20593;-60
2023/04/29 08:58:44;;;;;;;1.20;1.10;;;;;;;;;;5055689;28;20229;-60
2023/04/29 09:01:11;;;;;;;1.00;1.00;;;;;;;;;;5055045;28;20651;-60
2023/04/29 09:03:43;;;;;;;1.52;0.90;;;;;;;;;;5055770;28;20667;-60
2023/04/29 09:06:12;;;;;;;1.10;1.00;;;;;;;;;;5054632;28;20201;-60
2023/04/29 09:08:41;;;;;;;1.65;1.10;;;;;;;;;;5055111;28;20201;-60
2023/04/29 09:11:10;;;;;;;1.05;0.80;;;;;;;;;;5054627;28;20235;-60
2023/04/29 09:13:38;;;;;;;1.10;1.00;;;;;;;;;;5055129;28;20213;-60
2023/04/29 09:16:11;;;;;;;1.15;0.90;;;;;;;;;;5055147;28;20596;-60
2023/04/29 09:18:45;;;;;;;0.90;0.90;;;;;;;;;;5054876;28;20255;-60
2023/04/29 09:21:17;;;;;;;1.33;0.80;;;;;;;;;;5054617;28;20242;-60
2023/04/29 09:23:46;;;;;;;2.05;1.15;;;;;;;;;;5054579;28;20240;-60
2023/04/29 09:26:14;;;;;;;1.15;1.05;;;;;;;;;;5053614;28;20598;-60
2023/04/29 09:28:43;;;;;;;0.85;0.85;;;;;;;;;;5054916;28;20652;-60
2023/04/29 09:31:12;;;;;;;1.17;0.90;;;;;;;;;;5054157;28;20205;-60
2023/04/29 09:33:50;;;;;;;2.35;0.98;;;;;;;;;;5054531;28;20582;-60
2023/04/29 09:36:33;;;;;;;1.27;1.02;;;;;;;;;;5054921;28;20230;-60
2023/04/29 09:39:02;;;;;;;1.10;1.00;;;;;;;;;;5054150;28;20264;-60
2023/04/29 09:41:29;;;;;;;2.08;1.00;;;;;;;;;;5054556;28;20270;-60
2023/04/29 09:44:04;;;;;;;0.93;0.93;;;;;;;;;;5055451;28;20232;-60
2023/04/29 09:46:32;;;;;;;2.25;0.95;;;;;;;;;;5053771;28;20205;-60
2023/04/29 09:48:59;;;;;;;1.10;1.00;;;;;;;;;;5054494;28;20205;-60
2023/04/29 09:51:26;;;;;;;1.65;0.95;;;;;;;;;;5054565;28;20209;-60
2023/04/29 09:53:54;;;;;;;1.95;0.98;;;;;;;;;;5054150;28;20263;-60
2023/04/29 09:56:23;;;;;;;0.90;0.90;;;;;;;;;;5054880;28;20259;-60
2023/04/29 09:58:50;;;;;;;1.13;0.85;;;;;;;;;;5053710;28;20268;-60
2023/04/29 10:01:20;;;;;;;1.00;0.80;;;;;;;;;;5054677;28;20227;-60
2023/04/29 10:03:49;;;;;;;1.17;1.08;;;;;;;;;;5053793;28;20227;-60
2023/04/29 10:06:18;;;;;;;0.85;0.80;;;;;;;;;;5055797;28;20212;-60
2023/04/29 10:08:47;;;;;;;2.65;1.00;;;;;;;;;;5058207;28;20464;-60
2023/04/29 10:11:15;;;;;;;1.77;0.90;;;;;;;;;;5058486;28;20271;-60
2023/04/29 10:13:44;;;;;;;1.58;0.90;;;;;;;;;;5057779;28;20639;-60
2023/04/29 10:16:19;;;;;;;1.08;0.90;;;;;;;;;;5058193;28;20260;-60
2023/04/29 10:18:50;;;;;;;0.93;0.90;;;;;;;;;;5057619;28;20315;-60
2023/04/29 10:21:18;;;;;;;1.25;0.90;;;;;;;;;;5057801;28;20289;-60
2023/04/29 10:23:46;;;;;;;1.35;0.90;;;;;;;;;;5057305;28;20237;-60
2023/04/29 10:26:16;;;;;;;1.40;0.98;;;;;;;;;;5057429;28;20270;-60
2023/04/29 10:28:46;;;;;;;1.25;0.80;;;;;;;;;;5057139;28;20209;-60
2023/04/29 10:31:16;;;;;;;2.75;1.00;;;;;;;;;;5056781;28;20802;-60
2023/04/29 10:33:44;;;;;;;0.93;0.90;;;;;;;;;;5057285;28;20272;-60
2023/04/29 10:36:13;;;;;;;1.10;0.75;;;;;;;;;;5057653;28;20216;-60
2023/04/29 10:38:42;;;;;;;0.98;0.90;;;;;;;;;;5056126;28;20604;-60
2023/04/29 10:41:15;;;;;;;1.60;0.80;;;;;;;;;;5057866;28;20642;-60
2023/04/29 10:43:45;;;;;;;1.40;0.80;;;;;;;;;;5057740;28;20270;-61
2023/04/29 10:46:19;;;;;;;0.93;0.75;;;;;;;;;;5057443;28;20451;-60
2023/04/29 10:48:47;;;;;;;0.85;0.77;;;;;;;;;;5056654;28;20240;-60
2023/04/29 10:51:30;;;;;;;1.02;0.90;;;;;;;;;;5056546;28;20270;-60
2023/04/29 10:54:02;;;;;;;1.17;0.80;;;;;;;;;;5057258;28;20197;-60
2023/04/29 10:56:42;;;;;;;1.58;0.82;;;;;;;;;;5056888;28;20749;-60
2023/04/29 10:59:15;;;;;;;1.70;0.77;;;;;;;;;;5056390;28;20275;-60
2023/04/29 11:01:43;;;;;;;1.23;0.70;;;;;;;;;;5056189;28;20278;-60
2023/04/29 11:04:11;;;;;;;1.15;0.90;;;;;;;;;;5056471;28;20240;-60
2023/04/29 11:06:40;;;;;;;1.08;0.70;;;;;;;;;;5055902;28;20205;-60
2023/04/29 11:09:39;;;;;;;0.85;0.80;;;;;;;;;;5056612;28;20270;-60
2023/04/29 11:12:10;;;;;;;0.90;0.90;;;;;;;;;;5056461;28;20236;-60
2023/04/29 11:14:42;;;;;;;1.08;0.70;;;;;;;;;;5056417;28;20204;-60
2023/04/29 11:17:10;;;;;;;1.05;0.70;;;;;;;;;;5055861;28;20205;-60
2023/04/29 11:19:41;;;;;;;1.00;0.70;;;;;;;;;;5056054;28;20329;-60
2023/04/29 11:22:13;;;;;;;0.90;0.70;;;;;;;;;;5056174;28;20266;-60
2023/04/29 11:24:53;;;;;;;0.70;0.65;;;;;;;;;;5056824;28;20205;-60
2023/04/29 11:27:24;;;;;;;0.88;0.73;;;;;;;;;;5056152;28;20266;-60
2023/04/29 11:29:57;;;;;;;0.90;0.90;;;;;;;;;;5056822;28;20563;-60
2023/04/29 11:32:24;;;;;;;0.98;0.90;;;;;;;;;;5056056;28;20205;-60
2023/04/29 11:34:52;;;;;;;0.70;0.70;;;;;;;;;;5055240;28;20243;-60
2023/04/29 11:37:23;;;;;;;0.80;0.77;;;;;;;;;;5056032;28;20604;-60
2023/04/29 11:39:51;;;;;;;1.23;0.70;;;;;;;;;;5055817;28;20233;-60
2023/04/29 11:42:22;;;;;;;0.73;0.65;;;;;;;;;;5056033;28;20711;-60
2023/04/29 11:44:55;;;;;;;0.77;0.60;;;;;;;;;;5055341;28;20208;-60
2023/04/29 11:47:26;;;;;;;0.70;0.70;;;;;;;;;;5055832;28;20219;-60
2023/04/29 11:49:54;;;;;;;0.93;0.70;;;;;;;;;;5055582;28;20492;-60
2023/04/29 11:52:22;;;;;;;0.65;0.65;;;;;;;;;;5055629;28;20215;-60
2023/04/29 11:54:50;;;;;;;0.82;0.65;;;;;;;;;;5055650;28;20205;-60
2023/04/29 11:57:18;;;;;;;1.42;0.77;;;;;;;;;;5055700;28;20205;-60
2023/04/29 11:59:45;;;;;;;0.95;0.60;;;;;;;;;;5054953;28;20263;-60
2023/04/29 12:02:14;;;;;;;1.85;0.80;;;;;;;;;;5055943;28;20215;-60
2023/04/29 12:04:48;;;;;;;0.80;0.60;;;;;;;;;;5055765;28;20243;-60
2023/04/29 12:07:16;;;;;;;0.70;0.68;;;;;;;;;;5055430;28;20237;-60
2023/04/29 12:09:44;;;;;;;1.42;0.90;;;;;;;;;;5055076;28;20201;-60
2023/04/29 12:12:12;;;;;;;0.70;0.70;;;;;;;;;;5055527;28;20201;-60
2023/04/29 12:14:40;;;;;;;0.80;0.77;;;;;;;;;;5055623;28;20983;-60
2023/04/29 12:17:08;;;;;;;0.68;0.68;;;;;;;;;;5055147;28;20291;-60
2023/04/29 12:19:38;;;;;;;0.68;0.68;;;;;;;;;;5054688;28;20224;-60
2023/04/29 12:22:05;;;;;;;0.70;0.70;;;;;;;;;;5055244;28;20232;-60
2023/04/29 12:24:35;;;;;;;0.70;0.70;;;;;;;;;;5054589;28;20205;-60
2023/04/29 12:27:03;;;;;;;0.85;0.60;;;;;;;;;;5054446;28;20231;-60
2023/04/29 12:29:32;;;;;;;0.60;0.60;;;;;;;;;;5054422;28;20565;-60
2023/04/29 12:32:00;;;;;;;0.60;0.60;;;;;;;;;;5054956;28;20603;-60
2023/04/29 12:34:29;;;;;;;0.60;0.60;;;;;;;;;;5054425;28;20290;-60
2023/04/29 12:36:59;;;;;;;0.60;0.60;;;;;;;;;;5054170;28;20240;-60
2023/04/29 12:39:27;;;;;;;0.70;0.70;;;;;;;;;;5053383;28;20213;-60
2023/04/29 12:41:57;;;;;;;0.98;0.60;;;;;;;;;;5054782;28;20205;-60
2023/04/29 12:44:24;;;;;;;0.70;0.70;;;;;;;;;;5054865;28;20299;-60
2023/04/29 12:46:53;;;;;;;0.57;0.57;;;;;;;;;;5054247;28;20592;-60
2023/04/29 12:49:20;;;;;;;0.82;0.70;;;;;;;;;;5053811;28;20200;-60
2023/04/29 12:51:48;;;;;;;1.10;0.70;;;;;;;;;;5054070;28;20213;-60
2023/04/29 12:54:17;;;;;;;0.60;0.60;;;;;;;;;;5054781;28;20609;-60
2023/04/29 12:56:46;;;;;;;0.50;0.50;;;;;;;;;;5053941;28;20255;-60
2023/04/29 12:59:14;;;;;;;0.60;0.60;;;;;;;;;;5055037;28;20201;-60
2023/04/29 13:01:42;;;;;;;0.60;0.60;;;;;;;;;;5054463;28;20204;-60
2023/04/29 13:04:10;;;;;;;0.60;0.60;;;;;;;;;;5054321;28;20740;-60
2023/04/29 13:06:40;;;;;;;0.65;0.60;;;;;;;;;;5053805;28;20485;-60
2023/04/29 13:09:10;;;;;;;0.60;0.60;;;;;;;;;;5054325;28;20232;-60
2023/04/29 13:11:39;;;;;;;0.57;0.57;;;;;;;;;;5054655;28;20200;-60
2023/04/29 13:14:07;;;;;;;0.65;0.65;;;;;;;;;;5053405;28;20227;-60
2023/04/29 13:16:34;;;;;;;0.65;0.65;;;;;;;;;;5054270;28;20201;-60
2023/04/29 13:19:03;;;;;;;0.90;0.70;;;;;;;;;;5053753;28;20221;-60
2023/04/29 13:21:31;;;;;;;0.60;0.60;;;;;;;;;;5053056;28;20307;-60
2023/04/29 13:23:59;;;;;;;2.00;0.80;;;;;;;;;;5052649;28;20648;-63
2023/04/29 13:26:26;;;;;;;1.23;0.60;;;;;;;;;;5053766;28;20545;-63
2023/04/29 13:28:55;;;;;;;1.27;0.60;;;;;;;;;;5053624;28;20216;-63
2023/04/29 13:31:23;;;;;;;0.60;0.60;;;;;;;;;;5053559;28;20201;-68
2023/04/29 13:33:51;;;;;;;0.60;0.60;;;;;;;;;;5053160;28;20272;-65
2023/04/29 13:36:19;;;;;;;1.77;0.70;;;;;;;;;;5053881;28;20291;-70
2023/04/29 13:38:47;;;;;;;0.80;0.60;;;;;;;;;;5053564;28;20217;-70
2023/04/29 13:41:15;;;;;;;0.77;0.60;;;;;;;;;;5054873;28;20232;-69
2023/04/29 13:43:42;;;;;;;1.30;0.65;;;;;;;;;;5058690;28;20205;-64
2023/04/29 13:46:11;;;;;;;1.42;0.70;;;;;;;;;;5057734;28;20209;-67
2023/04/29 13:48:39;;;;;;;0.82;0.50;;;;;;;;;;5057282;28;20532;-68
2023/04/29 13:51:06;;;;;;;1.45;0.80;;;;;;;;;;5057946;28;20660;-70
2023/04/29 13:53:34;;;;;;;0.95;0.60;;;;;;;;;;5057239;28;20270;-70
2023/04/29 13:56:01;;;;;;;1.98;0.82;;;;;;;;;;5057232;28;20244;-64
2023/04/29 13:58:29;;;;;;;0.55;0.55;;;;;;;;;;5057813;28;20545;-60
2023/04/29 14:00:57;;;;;;;2.58;0.98;;;;;;;;;;5057061;28;20519;-60
2023/04/29 14:03:26;;;;;;;1.50;0.63;;;;;;;;;;5057120;28;20244;-63
2023/04/29 14:05:53;;;;;;;1.80;0.70;;;;;;;;;;5056924;28;20205;-63
2023/04/29 14:08:21;;;;;;;2.03;0.80;;;;;;;;;;5056949;28;20216;-61
2023/04/29 14:10:48;;;;;;;1.55;0.80;;;;;;;;;;5056924;28;20252;-60
2023/04/29 14:13:16;;;;;;;0.68;0.68;;;;;;;;;;5056485;28;20287;-57
2023/04/29 14:15:44;;;;;;;2.15;0.75;;;;;;;;;;5057247;28;20308;-63
2023/04/29 14:18:11;;;;;;;2.78;1.05;;;;;;;;;;5056602;28;20328;-65
2023/04/29 14:20:40;;;;;;;2.67;0.73;;;;;;;;;;5057258;28;20290;-58
2023/04/29 14:23:08;;;;;;;1.38;0.80;;;;;;;;;;5056649;28;20209;-64
2023/04/29 14:25:35;;;;;;;2.35;0.70;;;;;;;;;;5057123;28;20216;-61
2023/04/29 14:28:03;;;;;;;1.95;1.05;;;;;;;;;;5056351;28;20643;-62
2023/04/29 14:30:30;;;;;;;3.05;1.00;;;;;;;;;;5056622;28;20599;-63
2023/04/29 14:32:58;;;;;;;3.88;0.90;;;;;;;;;;5056560;28;20244;-58
2023/04/29 14:35:25;;;;;;;1.63;1.02;;;;;;;;;;5057056;28;20342;-56
2023/04/29 14:37:54;;;;;;;2.90;1.20;;;;;;;;;;5057491;28;20205;-55
2023/04/29 14:40:23;;;;;;;2.97;0.82;;;;;;;;;;5056657;28;20710;-55
2023/04/29 14:42:50;;;;;;;3.08;1.00;;;;;;;;;;5056603;28;20203;-55
2023/04/29 14:45:18;;;;;;;2.78;1.00;;;;;;;;;;5055626;28;20648;-55
2023/04/29 14:47:45;;;;;;;2.83;1.10;;;;;;;;;;5055228;28;20205;-55
2023/04/29 14:50:13;;;;;;;1.80;1.27;;;;;;;;;;5055005;28;20747;-55
2023/04/29 14:52:40;;;;;;;2.10;0.90;;;;;;;;;;5055251;28;20703;-55
2023/04/29 14:55:09;;;;;;;1.25;1.00;;;;;;;;;;5056156;28;20233;-55